createdAt,value
2023-04-18T00:02:10.725Z,8.40
2023-04-18T00:05:18.076Z,8.40
2023-04-18T00:08:21.352Z,8.40
2023-04-18T00:11:24.560Z,8.40
2023-04-18T00:14:29.205Z,8.50
2023-04-18T00:17:32.831Z,8.50
2023-04-18T00:20:38.870Z,8.40
2023-04-18T00:23:42.276Z,8.40
2023-04-18T00:26:45.480Z,8.40
2023-04-18T00:29:50.026Z,8.40
2023-04-18T00:32:53.205Z,8.50
2023-04-18T00:35:56.402Z,8.50
2023-04-18T00:38:59.573Z,8.40
2023-04-18T00:42:02.839Z,8.40
2023-04-18T00:45:08.626Z,8.40
2023-04-18T00:48:12.264Z,8.50
2023-04-18T00:51:16.239Z,8.40
2023-04-18T00:54:20.183Z,8.40
2023-04-18T00:57:23.814Z,8.40
2023-04-18T01:00:28.656Z,8.40
2023-04-18T01:03:32.914Z,8.40
2023-04-18T01:06:37.381Z,8.40
2023-04-18T01:09:41.200Z,8.40
2023-04-18T01:12:44.368Z,8.40
2023-04-18T01:15:51.075Z,8.40
2023-04-18T01:18:54.487Z,8.40
2023-04-18T01:21:57.624Z,8.40
2023-04-18T01:25:07.463Z,8.30
2023-04-18T01:28:11.228Z,8.30
2023-04-18T01:31:14.423Z,8.30
2023-04-18T01:34:18.753Z,8.30
2023-04-18T01:37:21.919Z,8.30
2023-04-18T01:40:26.953Z,8.30
2023-04-18T01:43:30.145Z,8.40
2023-04-18T01:46:33.308Z,8.30
2023-04-18T01:49:37.918Z,8.30
2023-04-18T01:52:43.704Z,8.30
2023-04-18T01:55:50.998Z,8.30
2023-04-18T01:58:54.153Z,8.30
2023-04-18T02:01:59.780Z,8.30
2023-04-18T02:05:03.772Z,8.30
2023-04-18T02:08:06.940Z,8.30
2023-04-18T02:11:12.514Z,8.30
2023-04-18T02:14:15.846Z,8.30
2023-04-18T02:17:19.201Z,8.30
2023-04-18T02:20:23.308Z,8.30
2023-04-18T02:23:26.598Z,8.30
2023-04-18T02:26:33.312Z,8.30
2023-04-18T02:29:36.493Z,8.40
2023-04-18T02:32:40.498Z,8.40
2023-04-18T02:35:44.188Z,8.40
2023-04-18T02:38:47.601Z,8.40
2023-04-18T02:41:52.217Z,8.40
2023-04-18T02:44:55.530Z,8.40
2023-04-18T02:47:59.651Z,8.40
2023-04-18T02:51:04.689Z,8.40
2023-04-18T02:54:10.428Z,8.30
2023-04-18T02:57:41.285Z,8.40
2023-04-18T03:00:47.298Z,8.30
2023-04-18T03:04:13.853Z,8.40
2023-04-18T03:07:38.198Z,8.40
2023-04-18T03:10:41.656Z,8.30
2023-04-18T03:13:48.839Z,8.30
2023-04-18T03:16:55.185Z,8.30
2023-04-18T03:20:12.201Z,8.30
2023-04-18T03:23:15.420Z,8.30
2023-04-18T03:26:18.690Z,8.30
2023-04-18T03:29:22.225Z,8.30
2023-04-18T03:32:25.812Z,8.20
2023-04-18T03:35:30.451Z,8.20
2023-04-18T03:38:33.909Z,8.20
2023-04-18T03:41:37.191Z,8.20
2023-04-18T03:44:40.610Z,8.20
2023-04-18T03:47:43.798Z,8.30
2023-04-18T03:50:48.499Z,8.20
2023-04-18T03:53:52.209Z,8.20
2023-04-18T03:56:55.688Z,8.30
2023-04-18T03:59:59.954Z,8.30
2023-04-18T04:03:07.447Z,8.40
2023-04-18T04:06:12.246Z,8.30
2023-04-18T04:09:15.519Z,8.30
2023-04-18T04:12:19.069Z,8.30
2023-04-18T04:15:22.259Z,8.40
2023-04-18T04:18:34.115Z,8.40
2023-04-18T04:21:40.502Z,8.40
2023-04-18T04:24:47.901Z,8.40
2023-04-18T04:27:54.878Z,8.40
2023-04-18T04:31:00.184Z,8.40
2023-04-18T04:34:04.866Z,8.40
2023-04-18T04:37:10.076Z,8.40
2023-04-18T04:40:23.043Z,8.40
2023-04-18T04:43:31.295Z,8.40
2023-04-18T04:46:34.632Z,8.40
2023-04-18T04:49:42.607Z,8.50
2023-04-18T04:52:47.702Z,8.50
2023-04-18T04:55:51.699Z,8.50
2023-04-18T04:58:56.165Z,8.60
2023-04-18T05:02:08.863Z,8.60
2023-04-18T05:05:12.667Z,8.70
2023-04-18T05:08:17.246Z,8.70
2023-04-18T05:11:21.049Z,8.70
2023-04-18T05:14:25.183Z,8.80
2023-04-18T05:17:28.697Z,8.70
2023-04-18T05:20:31.983Z,8.70
2023-04-18T05:23:37.389Z,8.70
2023-04-18T05:26:40.867Z,8.70
2023-04-18T05:29:44.017Z,8.70
2023-04-18T05:32:47.258Z,8.80
2023-04-18T05:35:50.631Z,8.90
2023-04-18T05:38:55.229Z,9.00
2023-04-18T05:41:58.458Z,9.00
2023-04-18T05:45:01.653Z,9.20
2023-04-18T05:48:05.195Z,9.10
2023-04-18T05:51:09.482Z,9.10
2023-04-18T05:54:15.937Z,9.20
2023-04-18T05:57:19.390Z,9.20
2023-04-18T06:00:22.778Z,9.20
2023-04-18T06:03:26.283Z,9.10
2023-04-18T06:06:29.849Z,9.20
2023-04-18T06:09:34.472Z,9.40
2023-04-18T06:12:37.615Z,9.60
2023-04-18T06:15:40.908Z,9.80
2023-04-18T06:18:44.108Z,10.20
2023-04-18T06:21:47.522Z,10.40
2023-04-18T06:24:52.351Z,10.30
2023-04-18T06:27:55.544Z,10.30
2023-04-18T06:30:58.725Z,10.60
2023-04-18T06:34:01.930Z,10.60
2023-04-18T06:37:05.797Z,10.80
2023-04-18T06:40:11.990Z,11.00
2023-04-18T06:43:15.294Z,11.00
2023-04-18T06:46:18.529Z,11.00
2023-04-18T06:49:26.271Z,11.20
2023-04-18T06:52:29.900Z,11.10
2023-04-18T06:55:34.584Z,11.20
2023-04-18T06:58:37.916Z,11.40
2023-04-18T07:01:42.398Z,11.50
2023-04-18T07:04:45.670Z,11.50
2023-04-18T07:07:49.023Z,11.40
2023-04-18T07:10:53.655Z,11.70
2023-04-18T07:13:56.895Z,11.70
2023-04-18T07:17:00.926Z,11.60
2023-04-18T07:20:04.510Z,11.70
2023-04-18T07:23:07.789Z,11.90
2023-04-18T07:26:13.607Z,11.70
2023-04-18T07:29:16.844Z,11.90
2023-04-18T07:32:20.077Z,11.90
2023-04-18T07:35:23.332Z,12.00
2023-04-18T07:38:26.685Z,11.90
2023-04-18T07:41:31.329Z,12.30
2023-04-18T07:44:36.771Z,12.50
2023-04-18T07:47:40.101Z,12.80
2023-04-18T07:50:43.274Z,12.90
2023-04-18T07:53:46.658Z,12.90
2023-04-18T07:56:51.208Z,12.70
2023-04-18T07:59:54.782Z,13.00
2023-04-18T08:02:58.216Z,13.20
2023-04-18T08:06:02.466Z,13.50
2023-04-18T08:09:06.032Z,13.60
2023-04-18T08:12:10.780Z,13.80
2023-04-18T08:15:14.012Z,14.30
2023-04-18T08:18:17.300Z,14.50
2023-04-18T08:21:21.069Z,14.40
2023-04-18T08:24:32.124Z,14.30
2023-04-18T08:27:37.344Z,14.60
2023-04-18T08:30:40.644Z,14.40
2023-04-18T08:33:44.264Z,14.60
2023-04-18T08:36:47.491Z,14.80
2023-04-18T08:39:50.693Z,14.90
2023-04-18T08:42:58.410Z,14.70
2023-04-18T08:46:02.109Z,15.00
2023-04-18T08:49:06.179Z,15.20
2023-04-18T08:52:12.441Z,15.40
2023-04-18T08:55:15.807Z,15.60
2023-04-18T08:58:23.820Z,15.60
2023-04-18T09:01:51.804Z,15.60
2023-04-18T09:04:55.789Z,15.70
2023-04-18T09:07:58.978Z,15.80
2023-04-18T09:11:24.252Z,15.80
2023-04-18T09:14:28.832Z,15.80
2023-04-18T09:17:34.974Z,15.70
2023-04-18T09:20:40.997Z,15.40
2023-04-18T09:23:47.045Z,15.40
2023-04-18T09:26:51.384Z,15.10
2023-04-18T09:29:57.905Z,15.00
2023-04-18T09:33:06.148Z,15.20
2023-04-18T09:36:20.835Z,15.20
2023-04-18T09:39:28.828Z,15.50
2023-04-18T09:42:37.432Z,15.30
2023-04-18T09:45:42.394Z,15.10
2023-04-18T09:48:45.638Z,15.00
2023-04-18T09:51:51.552Z,15.30
2023-04-18T09:55:00.861Z,15.40
2023-04-18T09:58:05.842Z,15.40
2023-04-18T10:01:13.139Z,15.60
2023-04-18T10:04:17.671Z,15.70
2023-04-18T10:07:22.829Z,15.80
2023-04-18T10:10:26.483Z,16.10
2023-04-18T10:13:30.570Z,16.20
2023-04-18T10:16:36.451Z,16.50
2023-04-18T10:19:41.955Z,16.50
2023-04-18T10:22:45.234Z,16.80
2023-04-18T10:25:52.332Z,16.70
2023-04-18T10:28:57.146Z,16.60
2023-04-18T10:32:07.276Z,17.00
2023-04-18T10:35:12.124Z,17.10
2023-04-18T10:38:18.217Z,16.80
2023-04-18T10:41:23.549Z,16.90
2023-04-18T10:44:27.537Z,17.30
2023-04-18T10:47:32.722Z,17.30
2023-04-18T10:50:35.964Z,17.30
2023-04-18T10:53:39.265Z,17.40
2023-04-18T10:56:53.542Z,17.80
2023-04-18T10:59:57.113Z,18.10
2023-04-18T11:03:01.852Z,18.50
2023-04-18T11:06:05.574Z,18.00
2023-04-18T11:09:13.326Z,18.40
2023-04-18T11:12:16.473Z,18.70
2023-04-18T11:15:21.965Z,19.20
2023-04-18T11:18:26.755Z,18.90
2023-04-18T11:21:31.572Z,18.80
2023-04-18T11:24:35.560Z,18.40
2023-04-18T11:27:38.935Z,18.40
2023-04-18T11:30:43.013Z,18.20
2023-04-18T11:33:48.959Z,18.40
2023-04-18T11:36:53.192Z,19.10
2023-04-18T11:39:56.446Z,17.80
2023-04-18T11:43:02.936Z,17.30
2023-04-18T11:46:06.687Z,18.00
2023-04-18T11:49:26.916Z,19.50
2023-04-18T11:52:31.667Z,19.90
2023-04-18T11:55:34.946Z,19.60
2023-04-18T11:58:38.448Z,19.60
2023-04-18T12:02:16.406Z,19.60
2023-04-18T12:05:29.165Z,19.40
2023-04-18T12:08:33.048Z,19.10
2023-04-18T12:11:36.276Z,19.40
2023-04-18T12:14:39.435Z,20.10
2023-04-18T12:17:45.168Z,20.20
2023-04-18T12:20:54.200Z,19.20
2023-04-18T12:23:58.527Z,19.10
2023-04-18T12:27:01.807Z,19.40
2023-04-18T12:30:07.083Z,18.80
2023-04-18T12:33:10.397Z,17.90
2023-04-18T12:36:14.971Z,18.80
2023-04-18T12:39:18.158Z,19.40
2023-04-18T12:42:21.443Z,19.30
2023-04-18T12:45:25.415Z,18.80
2023-04-18T12:48:28.923Z,18.70
2023-04-18T12:51:33.851Z,18.80
2023-04-18T12:54:37.998Z,18.60
2023-04-18T12:57:42.205Z,19.40
2023-04-18T13:00:45.850Z,20.80
2023-04-18T13:03:56.741Z,21.70
2023-04-18T13:07:10.230Z,20.70
2023-04-18T13:10:15.597Z,21.70
2023-04-18T13:13:18.865Z,21.90
2023-04-18T13:16:22.437Z,21.30
2023-04-18T13:19:26.142Z,20.70
2023-04-18T13:22:31.497Z,21.00
2023-04-18T13:25:34.954Z,20.30
2023-04-18T13:28:38.222Z,19.40
2023-04-18T13:31:41.830Z,18.40
2023-04-18T13:34:47.593Z,17.80
2023-04-18T13:37:52.236Z,17.60
2023-04-18T13:41:04.738Z,17.60
2023-04-18T13:44:14.444Z,17.10
2023-04-18T13:47:17.883Z,17.00
2023-04-18T13:50:21.230Z,16.70
2023-04-18T13:53:25.902Z,16.50
2023-04-18T13:56:29.169Z,16.40
2023-04-18T13:59:32.984Z,16.60
2023-04-18T14:02:36.346Z,16.40
2023-04-18T14:05:39.615Z,16.30
2023-04-18T14:08:44.255Z,16.20
2023-04-18T14:11:48.518Z,16.10
2023-04-18T14:15:14.624Z,16.00
2023-04-18T14:18:21.695Z,15.90
2023-04-18T14:21:26.219Z,15.90
2023-04-18T14:24:30.836Z,15.80
2023-04-18T14:27:34.162Z,15.80
2023-04-18T14:30:37.637Z,15.90
2023-04-18T14:33:41.002Z,15.80
2023-04-18T14:36:44.234Z,15.60
2023-04-18T14:39:49.377Z,15.40
2023-04-18T14:42:52.638Z,15.20
2023-04-18T14:45:57.136Z,15.10
2023-04-18T14:49:03.430Z,14.90
2023-04-18T14:52:07.067Z,14.70
2023-04-18T14:55:12.798Z,14.70
2023-04-18T14:58:16.074Z,14.60
2023-04-18T15:01:19.769Z,14.60
2023-04-18T15:04:23.655Z,14.60
2023-04-18T15:07:27.167Z,14.60
2023-04-18T15:10:31.881Z,14.70
2023-04-18T15:13:35.360Z,14.60
2023-04-18T15:16:40.754Z,14.50
2023-04-18T15:19:44.745Z,14.60
2023-04-18T15:22:48.799Z,14.60
2023-04-18T15:25:53.545Z,14.60
2023-04-18T15:28:56.850Z,14.60
2023-04-18T15:32:00.575Z,14.60
2023-04-18T15:35:04.140Z,14.70
2023-04-18T15:38:07.565Z,14.60
2023-04-18T15:41:12.384Z,14.60
2023-04-18T15:44:15.778Z,14.70
2023-04-18T15:47:19.208Z,14.60
2023-04-18T15:50:22.808Z,14.60
2023-04-18T15:53:26.113Z,14.60
2023-04-18T15:56:33.045Z,14.60
2023-04-18T15:59:37.104Z,14.60
2023-04-18T16:02:40.372Z,14.50
2023-04-18T16:05:43.640Z,14.50
2023-04-18T16:08:46.886Z,14.50
2023-04-18T16:11:51.514Z,14.50
2023-04-18T16:14:55.151Z,14.40
2023-04-18T16:17:58.577Z,14.40
2023-04-18T16:21:01.876Z,14.40
2023-04-18T16:24:05.309Z,14.30
2023-04-18T16:27:09.909Z,14.20
2023-04-18T16:30:13.849Z,14.20
2023-04-18T16:33:20.675Z,14.10
2023-04-18T16:36:24.075Z,14.00
2023-04-18T16:39:27.954Z,14.00
2023-04-18T16:42:33.109Z,13.90
2023-04-18T16:45:37.674Z,13.80
2023-04-18T16:48:41.715Z,13.80
2023-04-18T16:51:44.934Z,13.70
2023-04-18T16:54:49.375Z,13.60
2023-04-18T16:57:55.544Z,13.60
2023-04-18T17:00:58.741Z,13.60
2023-04-18T17:04:02.883Z,13.60
2023-04-18T17:07:06.423Z,13.50
2023-04-18T17:10:11.107Z,13.60
2023-04-18T17:13:15.868Z,13.60
2023-04-18T17:16:19.403Z,13.50
2023-04-18T17:19:23.871Z,13.50
2023-04-18T17:22:27.086Z,13.40
2023-04-18T17:25:30.375Z,13.40
2023-04-18T17:28:35.035Z,13.30
2023-04-18T17:31:38.442Z,13.20
2023-04-18T17:34:41.829Z,13.10
2023-04-18T17:37:45.172Z,13.10
2023-04-18T17:40:48.521Z,13.20
2023-04-18T17:43:53.295Z,13.00
2023-04-18T17:46:56.578Z,13.00
2023-04-18T17:49:59.968Z,13.00
2023-04-18T17:53:03.679Z,12.90
2023-04-18T17:56:07.135Z,12.80
2023-04-18T17:59:12.103Z,12.80
2023-04-18T18:02:15.645Z,12.80
2023-04-18T18:05:18.988Z,12.70
2023-04-18T18:08:22.450Z,12.70
2023-04-18T18:11:27.255Z,12.70
2023-04-18T18:14:31.896Z,12.60
2023-04-18T18:17:35.491Z,12.60
2023-04-18T18:20:38.866Z,12.50
2023-04-18T18:23:42.539Z,12.60
2023-04-18T18:26:46.200Z,12.50
2023-04-18T18:29:51.081Z,12.50
2023-04-18T18:32:54.523Z,12.50
2023-04-18T18:35:58.643Z,12.50
2023-04-18T18:39:02.047Z,12.40
2023-04-18T18:42:05.590Z,12.40
2023-04-18T18:45:11.299Z,12.40
2023-04-18T18:48:15.717Z,12.40
2023-04-18T18:51:20.242Z,12.40
2023-04-18T18:54:23.733Z,12.30
2023-04-18T18:57:27.362Z,12.30
2023-04-18T19:00:32.108Z,12.20
2023-04-18T19:03:35.836Z,12.10
2023-04-18T19:06:39.243Z,12.10
2023-04-18T19:09:43.220Z,12.10
2023-04-18T19:12:47.039Z,12.00
2023-04-18T19:15:51.730Z,11.90
2023-04-18T19:18:55.762Z,11.90
2023-04-18T19:22:01.064Z,11.90
2023-04-18T19:25:04.687Z,11.80
2023-04-18T19:28:08.242Z,11.80
2023-04-18T19:31:12.925Z,11.70
2023-04-18T19:34:18.784Z,11.70
2023-04-18T19:37:22.063Z,11.70
2023-04-18T19:40:26.702Z,11.60
2023-04-18T19:43:30.028Z,11.40
2023-04-18T19:46:35.394Z,11.30
2023-04-18T19:49:38.971Z,11.20
2023-04-18T19:52:42.482Z,11.10
2023-04-18T19:55:46.676Z,10.90
2023-04-18T19:58:51.112Z,10.90
2023-04-18T20:01:57.772Z,10.80
2023-04-18T20:05:02.652Z,10.80
2023-04-18T20:08:06.581Z,10.70
2023-04-18T20:11:11.522Z,10.60
2023-04-18T20:14:15.102Z,10.60
2023-04-18T20:17:20.027Z,10.50
2023-04-18T20:20:23.454Z,10.50
2023-04-18T20:23:26.868Z,10.50
2023-04-18T20:26:31.381Z,10.40
2023-04-18T20:29:34.646Z,10.40
2023-04-18T20:32:39.308Z,10.40
2023-04-18T20:35:44.172Z,10.40
2023-04-18T20:38:50.422Z,10.40
2023-04-18T20:41:57.685Z,10.30
2023-04-18T20:45:02.931Z,10.30
2023-04-18T20:48:08.199Z,10.40
2023-04-18T20:51:11.859Z,10.40
2023-04-18T20:54:15.375Z,10.40
2023-04-18T20:57:20.665Z,10.30
2023-04-18T21:00:24.306Z,10.40
2023-04-18T21:03:29.904Z,10.30
2023-04-18T21:06:33.472Z,10.30
2023-04-18T21:09:37.591Z,10.20
2023-04-18T21:12:40.853Z,10.20
2023-04-18T21:15:44.149Z,10.20
2023-04-18T21:18:48.838Z,10.20
2023-04-18T21:21:52.173Z,10.20
2023-04-18T21:24:55.458Z,10.30
2023-04-18T21:27:58.642Z,10.20
2023-04-18T21:31:01.895Z,10.20
2023-04-18T21:34:06.833Z,10.30
2023-04-18T21:37:10.095Z,10.20
2023-04-18T21:40:14.318Z,10.20
2023-04-18T21:43:17.484Z,10.30
2023-04-18T21:46:21.248Z,10.30
2023-04-18T21:49:26.265Z,10.20
2023-04-18T21:52:29.668Z,10.20
2023-04-18T21:55:32.864Z,10.20
2023-04-18T21:58:36.578Z,10.20
2023-04-18T22:01:39.821Z,10.10
2023-04-18T22:04:45.032Z,10.00
2023-04-18T22:07:57.537Z,10.10
2023-04-18T22:11:01.818Z,10.00
2023-04-18T22:14:05.793Z,10.00
2023-04-18T22:17:09.222Z,10.00
2023-04-18T22:20:14.195Z,10.00
2023-04-18T22:23:17.647Z,10.10
2023-04-18T22:26:21.000Z,10.10
2023-04-18T22:29:24.258Z,10.00
2023-04-18T22:32:28.003Z,10.00
2023-04-18T22:35:32.686Z,10.00
2023-04-18T22:38:36.122Z,10.00
2023-04-18T22:41:39.267Z,10.00
2023-04-18T22:44:42.483Z,10.00
2023-04-18T22:47:46.316Z,9.90
2023-04-18T22:50:50.968Z,10.00
2023-04-18T22:53:54.139Z,9.90
2023-04-18T22:56:58.348Z,10.00
2023-04-18T23:00:01.577Z,10.00
2023-04-18T23:03:05.325Z,9.90
2023-04-18T23:06:10.285Z,9.90
2023-04-18T23:09:13.460Z,9.90
2023-04-18T23:12:16.833Z,9.80
2023-04-18T23:15:22.679Z,9.90
2023-04-18T23:18:25.945Z,9.80
2023-04-18T23:21:31.211Z,9.80
2023-04-18T23:24:34.469Z,9.80
2023-04-18T23:27:40.699Z,9.80
2023-04-18T23:30:48.014Z,9.80
2023-04-18T23:33:51.179Z,9.80
2023-04-18T23:36:55.835Z,9.80
2023-04-18T23:39:59.229Z,9.80
2023-04-18T23:43:03.029Z,9.80
2023-04-18T23:46:06.478Z,9.90
2023-04-18T23:49:09.954Z,9.80
2023-04-18T23:52:14.521Z,9.80
2023-04-18T23:55:18.470Z,9.90
2023-04-18T23:58:21.919Z,9.90
